Time;durP1;ratioP1;P1;durP2;ratioP2;P2;SDS_P1;SDS_P2;PMS_P1;PMS_P2;Temp;Humidity;BMP_temperature;BMP_pressure;BME280_temperature;BME280_humidity;BME280_pressure;Samples;Min_cycle;Max_cycle;Signal;HPM_P1;HPM_P2
2022/05/09 00:02:18;0.00;0.00;0.62;0.00;0.00;0.62;;;;;17.60;1.00;;;;;;2259873;61;1311;-81
2022/05/09 00:04:46;22972.00;0.08;40.42;0.00;0.00;0.62;;;;;17.50;1.00;;;;;;2259915;61;1056;-81
2022/05/09 00:07:13;107608.00;0.36;186.70;0.00;0.00;0.62;;;;;17.40;1.00;;;;;;2260051;61;1093;-82
2022/05/09 00:09:42;45628.00;0.15;79.62;0.00;0.00;0.62;;;;;17.60;1.00;;;;;;2259630;61;1092;-80
2022/05/09 00:12:10;212183.00;0.71;366.89;38169.00;0.13;66.72;;;;;17.70;1.00;;;;;;2259993;61;1355;-81
2022/05/09 00:14:37;80322.00;0.27;139.59;0.00;0.00;0.62;;;;;17.80;1.00;;;;;;2260011;61;2176;-81
2022/05/09 00:17:04;684908.00;2.28;1181.08;40321.00;0.13;70.44;;;;;17.90;1.00;;;;;;2264525;61;1931;-83
2022/05/09 00:19:31;1424995.00;4.75;2502.76;111642.00;0.37;193.66;;;;;17.70;1.00;;;;;;2259734;61;1180;-82
2022/05/09 00:21:59;1021073.00;3.40;1769.83;57721.00;0.19;100.54;;;;;17.50;1.00;;;;;;2259847;61;1349;-82
2022/05/09 00:24:26;1373816.00;4.58;2407.85;79617.00;0.27;138.38;;;;;17.40;1.00;;;;;;2260154;61;1186;-83
2022/05/09 00:26:54;954780.00;3.18;1652.54;135967.00;0.45;235.62;;;;;17.50;1.00;;;;;;2260318;61;1096;-83
2022/05/09 00:29:21;960867.00;3.20;1663.28;93673.00;0.31;162.65;;;;;17.60;1.00;;;;;;2260076;61;1077;-83
2022/05/09 00:31:50;170661.00;0.57;295.41;80701.00;0.27;140.25;;;;;17.50;1.00;;;;;;2260140;61;1266;-83
2022/05/09 00:34:19;359359.00;1.20;619.95;81706.00;0.27;141.98;;;;;17.20;1.00;;;;;;2259742;61;1101;-82
2022/05/09 00:36:47;238673.00;0.80;412.47;79390.00;0.26;137.98;;;;;17.30;1.00;;;;;;2259759;61;2022;-82
2022/05/09 00:39:17;111744.00;0.37;193.84;0.00;0.00;0.62;;;;;17.30;1.00;;;;;;2260094;61;1061;-82
2022/05/09 00:41:45;6154.00;0.02;11.29;0.00;0.00;0.62;;;;;17.20;1.00;;;;;;2259795;61;1349;-82
2022/05/09 00:44:15;37145.00;0.12;64.95;0.00;0.00;0.62;;;;;17.30;1.00;;;;;;2259940;61;1096;-82
2022/05/09 00:46:44;20989.00;0.07;36.98;0.00;0.00;0.62;;;;;17.30;1.00;;;;;;2259975;61;1188;-82
2022/05/09 00:49:18;72206.00;0.24;125.57;0.00;0.00;0.62;;;;;17.30;1.00;;;;;;2260303;61;1155;-82
2022/05/09 00:52:18;0.00;0.00;0.62;0.00;0.00;0.62;;;;;17.30;1.00;;;;;;2261517;61;1357;-82
2022/05/09 00:54:50;444723.00;1.48;766.71;134485.00;0.45;233.06;;;;;17.30;1.00;;;;;;2260334;61;1186;-81
2022/05/09 00:57:25;0.00;0.00;0.62;0.00;0.00;0.62;;;;;17.20;1.00;;;;;;2260163;61;2538;-82
2022/05/09 00:59:56;82384.00;0.27;143.16;0.00;0.00;0.62;;;;;17.00;1.00;;;;;;2260073;61;1156;-80
2022/05/09 01:02:24;669462.00;2.23;1154.32;101280.00;0.34;175.78;;;;;17.00;1.00;;;;;;2259906;61;1432;-82
2022/05/09 01:04:54;1246838.00;4.16;2175.14;171474.00;0.57;296.81;;;;;17.00;1.00;;;;;;2260584;61;1108;-83
2022/05/09 01:07:21;1579874.00;5.27;2794.34;79513.00;0.27;138.20;;;;;16.70;1.00;;;;;;2262076;61;1099;-82
2022/05/09 01:09:49;972310.00;3.24;1683.49;85409.00;0.28;148.38;;;;;16.70;1.00;;;;;;2260625;61;1076;-83
2022/05/09 01:12:20;1370210.00;4.57;2401.19;83292.00;0.28;144.72;;;;;16.60;1.00;;;;;;2260333;61;1227;-82
2022/05/09 01:14:48;1313725.00;4.38;2297.25;151115.00;0.50;261.73;;;;;16.60;1.00;;;;;;2260108;61;1144;-83
2022/05/09 01:17:16;1194048.00;3.98;2079.46;142479.00;0.47;246.84;;;;;16.60;1.00;;;;;;2260386;61;2010;-82
2022/05/09 01:19:47;283363.00;0.94;489.32;80851.00;0.27;140.51;;;;;16.60;1.00;;;;;;2260322;61;1135;-83
2022/05/09 01:22:22;206442.00;0.69;357.01;81868.00;0.27;142.26;;;;;16.70;1.00;;;;;;2259630;61;1427;-82
2022/05/09 01:24:49;63125.00;0.21;109.88;0.00;0.00;0.62;;;;;16.60;1.00;;;;;;2260310;61;1123;-82
2022/05/09 01:27:16;14316.00;0.05;25.43;0.00;0.00;0.62;;;;;16.60;1.00;;;;;;2260980;61;1143;-82
2022/05/09 01:29:52;61163.00;0.20;106.49;0.00;0.00;0.62;;;;;16.60;1.00;;;;;;2260008;61;1190;-82
2022/05/09 01:32:26;17302.00;0.06;30.60;0.00;0.00;0.62;;;;;16.50;1.00;;;;;;2259607;61;1458;-81
2022/05/09 01:34:59;0.00;0.00;0.62;0.00;0.00;0.62;;;;;16.50;1.00;;;;;;2259953;61;1068;-81
2022/05/09 01:37:29;928443.00;3.09;1606.13;62023.00;0.21;107.97;;;;;16.70;1.00;;;;;;2259382;61;2010;-83
2022/05/09 01:39:56;1282217.00;4.27;2239.60;223870.00;0.75;387.00;;;;;16.60;1.00;;;;;;2259709;61;2169;-81
2022/05/09 01:42:24;1578636.00;5.26;2791.98;164520.00;0.55;284.83;;;;;16.40;1.00;;;;;;2259919;61;1306;-82
2022/05/09 01:44:51;976829.00;3.26;1691.48;67155.00;0.22;116.84;;;;;16.20;1.00;;;;;;2260068;61;1151;-83
2022/05/09 01:50:03;690538.00;2.30;1190.83;56814.00;0.19;98.97;;;;;16.30;1.00;;;;;;2260446;61;796;-83
2022/05/09 01:52:32;801528.00;2.67;1383.79;103615.00;0.35;179.81;;;;;16.30;1.00;;;;;;2259188;61;2059;-82
2022/05/09 01:54:59;331486.00;1.10;572.04;78639.00;0.26;136.69;;;;;16.50;1.00;;;;;;2260368;61;1131;-83
2022/05/09 01:57:26;184110.00;0.61;318.57;79754.00;0.27;138.61;;;;;16.50;1.00;;;;;;2259916;61;2384;-83
2022/05/09 01:59:53;49415.00;0.16;86.17;0.00;0.00;0.62;;;;;16.70;1.00;;;;;;2260080;61;1191;-83
2022/05/09 02:02:23;0.00;0.00;0.62;0.00;0.00;0.62;;;;;16.60;1.00;;;;;;2260216;61;1333;-83
2022/05/09 02:04:50;32949.00;0.11;57.69;0.00;0.00;0.62;;;;;16.60;1.00;;;;;;2260373;61;1368;-83
2022/05/09 02:07:21;71905.00;0.24;125.05;0.00;0.00;0.62;;;;;17.00;1.00;;;;;;2261728;61;1195;-84
2022/05/09 02:09:51;153283.00;0.51;265.47;0.00;0.00;0.62;;;;;16.70;1.00;;;;;;2262962;61;1046;-83
2022/05/09 02:12:18;156034.00;0.52;270.21;0.00;0.00;0.62;;;;;16.60;1.00;;;;;;2264361;61;1344;-82
2022/05/09 02:14:46;16088.00;0.05;28.50;0.00;0.00;0.62;;;;;16.60;1.00;;;;;;2264395;61;1028;-83
2022/05/09 02:17:14;574010.00;1.91;989.36;109672.00;0.37;190.26;;;;;16.80;1.00;;;;;;2264318;61;1926;-81
2022/05/09 02:19:42;62317.00;0.21;108.48;0.00;0.00;0.62;;;;;17.10;1.00;;;;;;2262577;61;1094;-82
2022/05/09 02:22:10;0.00;0.00;0.62;0.00;0.00;0.62;;;;;17.20;1.00;;;;;;2261672;61;1357;-83
2022/05/09 02:24:39;62152.00;0.21;108.20;0.00;0.00;0.62;;;;;16.80;1.00;;;;;;2261376;61;1135;-83
2022/05/09 02:27:08;60344.00;0.20;105.07;0.00;0.00;0.62;;;;;16.60;1.00;;;;;;2261846;61;1139;-82
2022/05/09 02:29:37;0.00;0.00;0.62;0.00;0.00;0.62;;;;;16.50;1.00;;;;;;2260483;61;1530;-81
2022/05/09 02:32:05;67434.00;0.22;117.33;0.00;0.00;0.62;;;;;16.30;1.00;;;;;;2261178;61;1383;-83
2022/05/09 02:34:33;39944.00;0.13;69.79;0.00;0.00;0.62;;;;;16.00;1.00;;;;;;2261399;61;2078;-82
2022/05/09 02:37:00;81414.00;0.27;141.48;15416.00;0.05;27.33;;;;;15.90;1.00;;;;;;2261498;61;1940;-83
2022/05/09 02:39:27;34833.00;0.12;60.95;0.00;0.00;0.62;;;;;15.90;1.00;;;;;;2261767;61;1105;-82
2022/05/09 02:41:55;49426.00;0.16;86.19;0.00;0.00;0.62;;;;;16.10;1.00;;;;;;2261477;61;1357;-80
2022/05/09 02:44:23;360205.00;1.20;621.40;0.00;0.00;0.62;;;;;16.20;1.00;;;;;;2261148;61;1136;-83
2022/05/09 02:46:50;891238.00;2.97;1540.74;44954.00;0.15;78.46;;;;;16.40;1.00;;;;;;2261480;61;1042;-82
2022/05/09 02:49:16;982791.00;3.28;1702.02;8444.00;0.03;15.25;;;;;16.40;1.00;;;;;;2261341;61;1122;-83
2022/05/09 02:51:46;743271.00;2.48;1282.36;91631.00;0.31;159.12;;;;;16.30;1.00;;;;;;2261380;61;1265;-83
2022/05/09 02:54:13;911852.00;3.04;1576.95;104054.00;0.35;180.57;;;;;16.20;1.00;;;;;;2261127;61;1159;-83
2022/05/09 02:56:39;1275310.00;4.25;2226.99;59569.00;0.20;103.73;;;;;16.10;1.00;;;;;;2261640;61;1182;-83
2022/05/09 02:59:06;1293295.00;4.31;2259.84;228263.00;0.76;394.56;;;;;16.30;1.00;;;;;;2261394;61;2042;-83
2022/05/09 03:01:35;886077.00;2.95;1531.68;104621.00;0.35;181.55;;;;;16.50;1.00;;;;;;2261538;61;1355;-82
2022/05/09 03:06:46;987619.00;3.29;1710.56;107335.00;0.36;186.23;;;;;16.50;1.00;;;;;;2261700;61;713;-83
2022/05/09 03:09:13;394665.00;1.32;680.63;77866.00;0.26;135.35;;;;;16.30;1.00;;;;;;2261806;61;1177;-83
2022/05/09 03:11:39;235916.00;0.79;407.73;79720.00;0.27;138.55;;;;;16.20;1.00;;;;;;2261408;61;1270;-83
2022/05/09 03:14:06;167286.00;0.56;289.59;82600.00;0.28;143.53;;;;;16.20;1.00;;;;;;2263838;61;1116;-84
2022/05/09 03:16:35;252140.00;0.84;435.63;74527.00;0.25;129.58;;;;;16.50;1.00;;;;;;2265559;61;1032;-85
2022/05/09 03:19:01;335601.00;1.12;579.11;0.00;0.00;0.62;;;;;16.20;1.00;;;;;;2265342;61;1928;-83
2022/05/09 03:21:28;118078.00;0.39;204.77;0.00;0.00;0.62;;;;;16.40;1.00;;;;;;2260879;61;1962;-83
2022/05/09 03:23:55;0.00;0.00;0.62;0.00;0.00;0.62;;;;;16.40;1.00;;;;;;2261255;61;1171;-83
2022/05/09 03:26:22;0.00;0.00;0.62;0.00;0.00;0.62;;;;;16.60;1.00;;;;;;2261269;61;1108;-82
2022/05/09 03:28:49;39162.00;0.13;68.44;0.00;0.00;0.62;;;;;16.40;1.00;;;;;;2261211;61;1131;-82
2022/05/09 03:31:16;35238.00;0.12;61.65;0.00;0.00;0.62;;;;;16.40;1.00;;;;;;2261438;61;1313;-82
2022/05/09 03:33:44;5926.00;0.02;10.89;0.00;0.00;0.62;;;;;16.40;1.00;;;;;;2260521;61;1140;-82
2022/05/09 03:36:11;328.00;0.00;1.19;0.00;0.00;0.62;;;;;16.50;1.00;;;;;;2261672;61;1187;-82
2022/05/09 03:38:38;39673.00;0.13;69.32;0.00;0.00;0.62;;;;;16.00;1.00;;;;;;2260730;61;1915;-82
2022/05/09 03:41:05;421277.00;1.40;726.39;41316.00;0.14;72.17;;;;;16.00;1.00;;;;;;2260406;61;1367;-83
2022/05/09 03:43:32;1177627.00;3.93;2049.82;78336.00;0.26;136.16;;;;;16.00;1.00;;;;;;2260691;61;1175;-84
2022/05/09 03:46:00;383313.00;1.28;661.12;80457.00;0.27;139.83;;;;;15.90;1.00;;;;;;2260526;61;1077;-83
2022/05/09 03:48:28;201693.00;0.67;348.84;82339.00;0.27;143.08;;;;;15.80;1.00;;;;;;2260402;61;1175;-82
2022/05/09 03:50:57;989.00;0.00;2.33;0.00;0.00;0.62;;;;;15.70;1.00;;;;;;2260807;61;1484;-83
2022/05/09 03:53:25;712232.00;2.37;1228.46;154453.00;0.51;267.48;;;;;15.40;1.00;;;;;;2260168;61;1139;-83
2022/05/09 03:55:52;8081.00;0.03;14.62;0.00;0.00;0.62;;;;;15.40;1.00;;;;;;2260427;61;1076;-83
2022/05/09 03:58:19;38246.00;0.13;66.85;0.00;0.00;0.62;;;;;15.50;1.00;;;;;;2260872;61;2020;-83
2022/05/09 04:00:46;196680.00;0.66;340.21;0.00;0.00;0.62;;;;;15.50;1.00;;;;;;2262719;61;1356;-83
2022/05/09 04:03:13;17974.00;0.06;31.76;0.00;0.00;0.62;;;;;15.40;1.00;;;;;;2260405;61;1061;-81
2022/05/09 04:05:40;4957.00;0.02;9.21;0.00;0.00;0.62;;;;;15.60;1.00;;;;;;2260753;61;1168;-81
2022/05/09 04:08:11;60785.00;0.20;105.83;0.00;0.00;0.62;;;;;15.70;1.00;;;;;;2260789;61;1183;-82
2022/05/09 04:10:41;88497.00;0.29;153.71;22369.00;0.07;39.37;;;;;16.00;1.00;;;;;;2260742;61;1340;-83
2022/05/09 04:13:08;1789156.00;5.96;3200.00;156679.00;0.52;271.32;;;;;16.30;1.00;;;;;;2260739;61;1398;-82
2022/05/09 04:18:21;402377.00;1.34;693.89;48417.00;0.16;84.45;;;;;16.50;1.00;;;;;;2264663;61;1919;-83
2022/05/09 04:20:50;1143423.00;3.81;1988.26;96316.00;0.32;167.21;;;;;16.50;1.00;;;;;;2261562;61;1250;-81
2022/05/09 04:23:19;1370490.00;4.57;2401.70;161544.00;0.54;279.70;;;;;16.00;1.00;;;;;;2260712;61;1055;-82
2022/05/09 04:25:48;851242.00;2.84;1470.64;145816.00;0.49;252.60;;;;;15.80;1.00;;;;;;2260742;61;2042;-83
2022/05/09 04:28:18;1050246.00;3.50;1821.67;28165.00;0.09;49.41;;;;;15.80;1.00;;;;;;2260916;61;1083;-83
2022/05/09 04:30:46;243614.00;0.81;420.97;85728.00;0.29;148.93;;;;;15.90;1.00;;;;;;2260550;61;1470;-82
2022/05/09 04:33:13;174777.00;0.58;302.49;87393.00;0.29;151.81;;;;;15.90;1.00;;;;;;2260917;61;1112;-82
2022/05/09 04:35:42;130473.00;0.43;226.14;24198.00;0.08;42.54;;;;;16.00;1.00;;;;;;2260858;61;1069;-83
2022/05/09 04:38:14;18611.00;0.06;32.86;0.00;0.00;0.62;;;;;15.70;1.00;;;;;;2260437;61;1931;-82
2022/05/09 04:40:43;8747.00;0.03;15.78;0.00;0.00;0.62;;;;;15.50;1.00;;;;;;2260645;61;1454;-81
2022/05/09 04:43:10;0.00;0.00;0.62;0.00;0.00;0.62;;;;;15.70;1.00;;;;;;2260787;61;1184;-83
2022/05/09 04:45:37;100542.00;0.34;174.51;0.00;0.00;0.62;;;;;15.70;1.00;;;;;;2260486;61;1167;-83
2022/05/09 04:48:05;45168.00;0.15;78.83;0.00;0.00;0.62;;;;;15.50;1.00;;;;;;2261174;61;1259;-82
2022/05/09 04:50:34;137620.00;0.46;238.47;11486.00;0.04;20.52;;;;;15.90;1.00;;;;;;2260556;61;1177;-82
2022/05/09 04:53:01;194435.00;0.65;336.34;0.00;0.00;0.62;;;;;15.90;1.00;;;;;;2260204;61;2263;-83
2022/05/09 04:55:29;569319.00;1.90;981.27;0.00;0.00;0.62;;;;;15.90;1.00;;;;;;2260503;61;1119;-82
2022/05/09 04:57:57;385385.00;1.28;664.68;81660.00;0.27;141.90;;;;;16.20;1.00;;;;;;2260620;61;1940;-83
2022/05/09 05:00:27;222205.00;0.74;384.14;83013.00;0.28;144.24;;;;;16.40;1.00;;;;;;2260707;61;1122;-84
2022/05/09 05:02:55;63476.00;0.21;110.49;0.00;0.00;0.62;;;;;16.50;1.00;;;;;;2260266;61;1376;-83
2022/05/09 05:05:23;0.00;0.00;0.62;0.00;0.00;0.62;;;;;16.70;1.00;;;;;;2260476;61;1198;-83
2022/05/09 05:07:50;142392.00;0.47;246.69;0.00;0.00;0.62;;;;;16.50;1.00;;;;;;2262742;61;1195;-83
2022/05/09 05:10:18;209115.00;0.70;361.61;0.00;0.00;0.62;;;;;16.40;1.00;;;;;;2262287;61;1330;-83
2022/05/09 05:12:45;129821.00;0.43;225.02;0.00;0.00;0.62;;;;;16.50;1.00;;;;;;2260849;61;1623;-83
2022/05/09 05:15:14;44325.00;0.15;77.37;0.00;0.00;0.62;;;;;16.50;1.00;;;;;;2260750;61;1136;-83
2022/05/09 05:17:41;174287.00;0.58;301.65;0.00;0.00;0.62;;;;;16.50;1.00;;;;;;2260551;61;1140;-83
2022/05/09 05:20:12;0.00;0.00;0.62;0.00;0.00;0.62;;;;;16.70;1.00;;;;;;2260346;61;2021;-83
2022/05/09 05:22:41;184936.00;0.62;319.99;2891.00;0.01;5.63;;;;;16.80;1.00;;;;;;2260894;61;1382;-82
2022/05/09 05:25:09;1037026.00;3.46;1798.16;75264.00;0.25;130.86;;;;;17.00;1.00;;;;;;2264153;61;1407;-83
2022/05/09 05:27:36;1884110.00;6.28;3389.02;224104.00;0.75;387.40;;;;;17.40;1.00;;;;;;2264195;61;1100;-84
2022/05/09 05:30:03;394983.00;1.32;681.18;100066.00;0.33;173.69;;;;;17.30;1.00;;;;;;2262781;61;1432;-83
2022/05/09 05:32:36;117925824.00;393.09;66429432.00;81003.00;0.27;140.77;;;;;17.40;1.00;;;;;;2260748;61;1374;-82
2022/05/09 05:35:05;204821.00;0.68;354.22;86345.00;0.29;150.00;;;;;18.40;1.00;;;;;;2260787;61;1092;-83
2022/05/09 05:37:33;28941.00;0.10;50.75;0.00;0.00;0.62;;;;;19.60;1.00;;;;;;2260536;61;1168;-83
2022/05/09 05:40:01;238.00;0.00;1.03;0.00;0.00;0.62;;;;;21.00;1.00;;;;;;2259840;61;1950;-82
2022/05/09 05:42:29;54133.00;0.18;94.33;0.00;0.00;0.62;;;;;22.00;1.00;;;;;;2259907;61;1337;-81
2022/05/09 05:44:57;14752.00;0.05;26.18;0.00;0.00;0.62;;;;;22.80;1.00;;;;;;2260481;61;1043;-83
2022/05/09 05:47:25;0.00;0.00;0.62;0.00;0.00;0.62;;;;;23.50;1.00;;;;;;2260160;61;1261;-83
2022/05/09 05:49:53;0.00;0.00;0.62;0.00;0.00;0.62;;;;;24.20;1.00;;;;;;2260104;61;1111;-82
2022/05/09 05:52:20;0.00;0.00;0.62;0.00;0.00;0.62;;;;;24.90;1.00;;;;;;2260204;61;1330;-82
2022/05/09 05:54:47;0.00;0.00;0.62;0.00;0.00;0.62;;;;;25.10;1.00;;;;;;2260106;61;1060;-83
2022/05/09 05:57:20;11885.00;0.04;21.21;0.00;0.00;0.62;;;;;25.50;1.00;;;;;;2260237;61;1242;-83
2022/05/09 05:59:52;68372.00;0.23;118.95;0.00;0.00;0.62;;;;;26.00;1.00;;;;;;2260033;61;2007;-83
2022/05/09 06:02:19;1030256.00;3.43;1786.13;72093.00;0.24;125.38;;;;;26.20;1.00;;;;;;2260425;61;1559;-83
2022/05/09 06:04:46;1283992.00;4.28;2242.84;127616.00;0.43;221.22;;;;;26.30;1.00;;;;;;2260208;61;1134;-83
2022/05/09 06:07:15;385686.00;1.29;665.20;69392.00;0.23;120.71;;;;;26.60;1.00;;;;;;2259612;61;990;-81
2022/05/09 06:09:45;36597.00;0.12;64.00;0.00;0.00;0.62;;;;;27.40;1.00;;;;;;2259355;61;1207;-82
2022/05/09 06:12:13;553.00;0.00;1.58;0.00;0.00;0.62;;;;;27.80;1.00;;;;;;2260177;61;1380;-83
2022/05/09 06:14:41;0.00;0.00;0.62;0.00;0.00;0.62;;;;;27.70;1.00;;;;;;2260869;61;1172;-81
2022/05/09 06:17:10;90293.00;0.30;156.81;0.00;0.00;0.62;;;;;27.90;1.00;;;;;;2264236;61;1179;-85
2022/05/09 06:19:37;1484722.00;4.95;2614.40;181089.00;0.60;313.36;;;;;28.70;1.00;;;;;;2264122;61;1927;-83
2022/05/09 06:22:05;800503.00;2.67;1382.00;52294.00;0.17;91.15;;;;;28.70;1.00;;;;;;2263987;61;1333;-83
2022/05/09 06:24:33;595183.00;1.98;1025.90;100836.00;0.34;175.01;;;;;28.30;1.00;;;;;;2264061;61;1469;-84
2022/05/09 06:27:01;914843.00;3.05;1582.20;143503.00;0.48;248.61;;;;;28.30;1.00;;;;;;2264025;61;1168;-83
2022/05/09 06:29:27;228837.00;0.76;395.55;75227.00;0.25;130.79;;;;;28.20;1.00;;;;;;2259791;61;1057;-83
2022/05/09 06:31:54;30957.00;0.10;54.24;0.00;0.00;0.62;;;;;28.50;1.00;;;;;;2259759;61;1232;-82
2022/05/09 06:34:21;113229.00;0.38;196.40;0.00;0.00;0.62;;;;;29.20;1.00;;;;;;2264195;61;1124;-84
2022/05/09 06:36:48;0.00;0.00;0.62;0.00;0.00;0.62;;;;;29.30;1.00;;;;;;2264087;61;1106;-83
2022/05/09 06:39:15;26610.00;0.09;46.71;0.00;0.00;0.62;;;;;28.70;1.00;;;;;;2264147;61;1994;-83
2022/05/09 06:41:43;0.00;0.00;0.62;0.00;0.00;0.62;;;;;28.60;1.00;;;;;;2264188;61;1358;-84
2022/05/09 06:44:10;1154347.00;3.85;2007.89;22948.00;0.08;40.37;;;;;29.20;1.00;;;;;;2264055;61;1101;-83
2022/05/09 06:46:37;688874.00;2.30;1187.95;49739.00;0.17;86.73;;;;;29.40;1.00;;;;;;2264117;61;1183;-84
2022/05/09 06:49:04;220897.00;0.74;381.89;60694.00;0.20;105.68;;;;;30.10;1.00;;;;;;2260721;61;1125;-83
2022/05/09 06:51:31;164012.00;0.55;283.95;72636.00;0.24;126.32;;;;;30.20;1.00;;;;;;2258626;61;1207;-83
2022/05/09 06:53:58;0.00;0.00;0.62;0.00;0.00;0.62;;;;;30.90;1.00;;;;;;2261028;61;1089;-85
2022/05/09 06:56:25;216624.00;0.72;374.53;0.00;0.00;0.62;;;;;31.10;1.00;;;;;;2264188;61;1038;-84
2022/05/09 06:58:53;573221.00;1.91;988.00;16693.00;0.06;29.54;;;;;30.80;1.00;;;;;;2264056;61;1923;-86
2022/05/09 07:01:21;1527034.00;5.09;2694.09;123859.00;0.41;214.74;;;;;30.70;1.00;;;;;;2261146;61;1464;-84
2022/05/09 07:03:48;188655.00;0.63;326.39;60886.00;0.20;106.01;;;;;30.70;1.00;;;;;;2259533;61;1096;-84
2022/05/09 07:06:16;191279.00;0.64;330.91;28173.00;0.09;49.42;;;;;30.30;1.00;;;;;;2260128;61;1159;-83
2022/05/09 07:08:44;29456.00;0.10;51.64;0.00;0.00;0.62;;;;;30.70;1.00;;;;;;2260660;61;1171;-84
2022/05/09 07:11:12;29028.00;0.10;50.90;0.00;0.00;0.62;;;;;30.80;1.00;;;;;;2260583;61;1267;-83
2022/05/09 07:13:41;167422.00;0.56;289.83;0.00;0.00;0.62;;;;;31.40;1.00;;;;;;2261218;61;1106;-81
2022/05/09 07:16:11;803576.00;2.68;1387.36;0.00;0.00;0.62;;;;;31.30;1.00;;;;;;2261224;61;1228;-83
2022/05/09 07:18:39;939423.00;3.13;1625.47;131853.00;0.44;228.52;;;;;31.90;1.00;;;;;;2263003;61;1935;-83
2022/05/09 07:21:06;323612.00;1.08;558.51;107689.00;0.36;186.84;;;;;31.60;1.00;;;;;;2262361;61;1626;-83
2022/05/09 07:23:34;138532.00;0.46;240.04;0.00;0.00;0.62;;;;;31.90;1.00;;;;;;2261124;61;1108;-82
2022/05/09 07:26:02;30333.00;0.10;53.16;0.00;0.00;0.62;;;;;31.50;1.00;;;;;;2261458;61;1170;-83
2022/05/09 07:28:29;99856.00;0.33;173.32;0.00;0.00;0.62;;;;;31.70;1.00;;;;;;2260857;61;1080;-83
2022/05/09 07:30:57;307820.00;1.03;531.36;0.00;0.00;0.62;;;;;31.70;1.00;;;;;;2261476;61;1376;-83
2022/05/09 07:33:27;983004.00;3.28;1702.39;149643.00;0.50;259.19;;;;;32.10;1.00;;;;;;2260596;61;1160;-83
2022/05/09 07:35:54;283164.00;0.94;488.98;0.00;0.00;0.62;;;;;31.60;1.00;;;;;;2260686;61;2378;-84
2022/05/09 07:38:21;38480.00;0.13;67.26;0.00;0.00;0.62;;;;;30.70;1.00;;;;;;2260868;61;1148;-85
2022/05/09 07:40:49;0.00;0.00;0.62;0.00;0.00;0.62;;;;;30.00;1.00;;;;;;2259920;61;2025;-84
2022/05/09 07:43:19;57389.00;0.19;99.96;0.00;0.00;0.62;;;;;29.10;1.00;;;;;;2261294;61;1103;-83
2022/05/09 07:45:47;0.00;0.00;0.62;0.00;0.00;0.62;;;;;28.10;1.00;;;;;;2261513;61;1151;-82
2022/05/09 07:48:16;0.00;0.00;0.62;0.00;0.00;0.62;;;;;27.90;1.00;;;;;;2261444;61;1237;-84
2022/05/09 07:50:44;0.00;0.00;0.62;0.00;0.00;0.62;;;;;28.00;1.00;;;;;;2260050;61;1701;-83
2022/05/09 07:53:14;474061.00;1.58;817.18;0.00;0.00;0.62;;;;;27.90;1.00;;;;;;2260837;61;1146;-83
2022/05/09 07:55:43;285210.00;0.95;492.49;124442.00;0.41;215.74;;;;;27.90;1.00;;;;;;2261331;61;1104;-82
2022/05/09 07:58:11;66767.00;0.22;116.17;0.00;0.00;0.62;;;;;27.70;1.00;;;;;;2260702;61;1120;-83
2022/05/09 08:00:38;57584.00;0.19;100.30;0.00;0.00;0.62;;;;;28.00;1.00;;;;;;2261207;61;2006;-82
2022/05/09 08:03:08;336903.00;1.12;581.35;10596.00;0.04;18.98;;;;;28.70;1.00;;;;;;2261414;61;1174;-83
2022/05/09 08:05:35;1255383.00;4.18;2190.68;63001.00;0.21;109.66;;;;;28.80;1.00;;;;;;2261189;61;1161;-83
2022/05/09 08:08:04;172301.00;0.57;298.23;80957.00;0.27;140.69;;;;;28.40;1.00;;;;;;2263940;61;1383;-85
2022/05/09 08:10:31;188205.00;0.63;325.62;64047.00;0.21;111.47;;;;;28.40;1.00;;;;;;2260861;61;1885;-84
2022/05/09 08:12:59;45826.00;0.15;79.97;0.00;0.00;0.62;;;;;28.80;1.00;;;;;;2259408;61;1475;-85
2022/05/09 08:15:27;0.00;0.00;0.62;0.00;0.00;0.62;;;;;28.90;1.00;;;;;;2260050;61;1119;-84
2022/05/09 08:17:54;0.00;0.00;0.62;0.00;0.00;0.62;;;;;28.70;1.00;;;;;;2259983;61;1144;-83
2022/05/09 08:20:22;0.00;0.00;0.62;0.00;0.00;0.62;;;;;28.90;1.00;;;;;;2261558;61;1990;-85
2022/05/09 08:22:49;330673.00;1.10;570.64;0.00;0.00;0.62;;;;;28.80;1.00;;;;;;2261942;61;1380;-83
2022/05/09 08:25:17;871160.00;2.90;1505.52;60568.00;0.20;105.46;;;;;28.00;1.00;;;;;;2262275;61;2271;-83
2022/05/09 08:27:44;1582425.00;5.27;2799.20;236022.00;0.79;407.91;;;;;28.20;1.00;;;;;;2261588;61;1195;-83
2022/05/09 08:30:12;467232.00;1.56;805.43;97585.00;0.33;169.40;;;;;28.20;1.00;;;;;;2261833;61;1148;-83
2022/05/09 08:32:39;201443.00;0.67;348.41;63292.00;0.21;110.17;;;;;28.20;1.00;;;;;;2261519;61;1375;-82
2022/05/09 08:35:09;325530.00;1.09;561.80;40246.00;0.13;70.31;;;;;28.20;1.00;;;;;;2261735;61;1601;-83
2022/05/09 08:37:36;98160.00;0.33;170.40;0.00;0.00;0.62;;;;;28.40;1.00;;;;;;2261573;61;1579;-83
2022/05/09 08:40:04;68263.00;0.23;118.76;0.00;0.00;0.62;;;;;28.40;1.00;;;;;;2261893;61;1924;-83
2022/05/09 08:42:41;427447.00;1.42;737.00;28241.00;0.09;49.54;;;;;28.10;1.00;;;;;;2261790;61;1396;-83
2022/05/09 08:45:28;283430.00;0.94;489.43;0.00;0.00;0.62;;;;;27.80;1.00;;;;;;2261613;61;1249;-83
2022/05/09 08:48:23;718369.00;2.39;1239.11;24140.00;0.08;42.44;;;;;27.10;1.00;;;;;;2260870;61;1089;-83
2022/05/09 08:51:03;1143578.00;3.81;1988.53;8012.00;0.03;14.50;;;;;27.40;1.00;;;;;;2261033;61;1419;-83
2022/05/09 08:53:36;36324.00;0.12;63.53;0.00;0.00;0.62;;;;;26.70;1.00;;;;;;2260641;61;1132;-83
2022/05/09 08:56:03;152249.00;0.51;263.68;16023.00;0.05;28.38;;;;;26.40;1.00;;;;;;2260582;61;1195;-83
2022/05/09 08:58:40;265042.00;0.88;457.82;0.00;0.00;0.62;;;;;25.90;1.00;;;;;;2260812;61;1101;-82
2022/05/09 09:01:14;586622.00;1.96;1011.13;0.00;0.00;0.62;;;;;26.00;1.00;;;;;;2260755;61;1934;-80
2022/05/09 09:03:48;262688.00;0.88;453.77;68476.00;0.23;119.13;;;;;25.90;1.00;;;;;;2259905;61;1097;-82
2022/05/09 09:06:34;111692.00;0.37;193.75;0.00;0.00;0.62;;;;;25.60;1.00;;;;;;2260544;61;1160;-82
2022/05/09 09:09:16;96342.00;0.32;167.26;0.00;0.00;0.62;;;;;25.70;1.00;;;;;;2261344;61;1193;-82
2022/05/09 09:11:53;156605.00;0.52;271.19;0.00;0.00;0.62;;;;;26.30;1.00;;;;;;2260464;61;1464;-83
2022/05/09 09:14:37;62567.00;0.21;108.91;0.00;0.00;0.62;;;;;25.90;1.00;;;;;;2260922;61;1148;-84
2022/05/09 09:17:24;1039935.00;3.47;1803.33;12895.00;0.04;22.96;;;;;25.30;1.00;;;;;;2263560;61;1156;-81
2022/05/09 09:20:03;1118838.00;3.73;1944.15;81428.00;0.27;141.50;;;;;25.20;1.00;;;;;;2257331;61;1990;-84
2022/05/09 09:22:51;1492644.00;4.98;2629.29;241328.00;0.80;417.04;;;;;24.50;1.00;;;;;;2257113;61;1516;-81
2022/05/09 09:25:31;572614.00;1.91;986.96;10613.00;0.04;19.01;;;;;24.70;1.00;;;;;;2256978;61;1149;-84
2022/05/09 09:28:05;415839.00;1.39;717.04;75987.00;0.25;132.10;;;;;24.50;1.00;;;;;;2257062;61;1160;-83
2022/05/09 09:30:33;103515.00;0.35;179.64;0.00;0.00;0.62;;;;;24.50;1.00;;;;;;2256552;61;1155;-83
2022/05/09 09:33:03;61798.00;0.21;107.58;0.00;0.00;0.62;;;;;24.40;1.00;;;;;;2257258;61;1560;-83
2022/05/09 09:35:37;707910.00;2.36;1220.96;23022.00;0.08;40.50;;;;;24.40;1.00;;;;;;2257413;61;2456;-83
2022/05/09 09:38:13;424530.00;1.42;731.98;134492.00;0.45;233.07;;;;;24.70;1.00;;;;;;2260815;61;1416;-81
2022/05/09 09:40:40;135358.00;0.45;234.57;0.00;0.00;0.62;;;;;25.00;1.00;;;;;;2264053;61;1911;-84
2022/05/09 09:43:07;55447.00;0.18;96.61;0.00;0.00;0.62;;;;;25.00;1.00;;;;;;2263696;61;1042;-85
2022/05/09 09:45:40;164905.00;0.55;285.49;0.00;0.00;0.62;;;;;25.30;1.00;;;;;;2260656;61;1870;-84
2022/05/09 09:48:13;146762.00;0.49;254.23;0.00;0.00;0.62;;;;;24.90;1.00;;;;;;2260741;61;1142;-82
2022/05/09 09:50:58;238671.00;0.80;412.47;0.00;0.00;0.62;;;;;24.30;1.00;;;;;;2261250;61;1436;-83
2022/05/09 09:53:34;846862.00;2.82;1462.98;37073.00;0.12;64.82;;;;;25.10;1.00;;;;;;2260274;61;1292;-83
2022/05/09 09:56:05;315783.00;1.05;545.05;77374.00;0.26;134.50;;;;;25.40;1.00;;;;;;2261295;61;1561;-83
2022/05/09 09:58:32;102071.00;0.34;177.15;0.00;0.00;0.62;;;;;26.20;1.00;;;;;;2262337;61;1092;-84
2022/05/09 10:01:07;177931.00;0.59;307.93;0.00;0.00;0.62;;;;;26.80;1.00;;;;;;2261430;61;1951;-84
2022/05/09 10:03:37;761320.00;2.54;1313.75;223.00;0.00;1.01;;;;;26.70;1.00;;;;;;2262921;61;1115;-83
2022/05/09 10:06:14;248285.00;0.83;429.00;78924.00;0.26;137.18;;;;;26.10;1.00;;;;;;2262735;61;1194;-82